Gorham, NH (03581)

11:01 AM EST on February 06, 2016 (GMT -0500)
Berlin Norwegian village | | Change Station
CLOSE
Current Station
Personal Weather Station
Location: Berlin, NH
Elevation: 1099 ft
Nearby Weather Stations

Elev 1099 ft 44.48 °N, 71.17 °W | Updated 3 seconds ago

Overcast
Overcast
32.7 °F
Feels Like 33 °F
N
1.6
Wind Variable Wind from North
Gusts 4.5 mph

Today
High -- | Low -- °F
--% Chance of Precip.
Yesterday
High -- | Low -- °F
Precip. -- in
Pressure 30.27 in
Visibility 10.0 miles
Clouds Few 4800 ft
Mostly Cloudy 12000 ft
Windchill 33 °F
Dew Point 16 °F
Humidity 49%
Rainfall 0.00 in
Snow Depth Not available.
6:58 AM 5:00 PM
Waning Crescent, 5% visible
METAR KHIE 061452Z AUTO VRB04KT 10SM FEW048 BKN120 M02/M08 A3021 RMK AO2 SLP250 T10221083 50000
Pressure 30.27 in
Visibility 10.0 miles
Clouds Few 4800 ft
Mostly Cloudy 12000 ft
Windchill 33 °F
Dew Point 16 °F
Humidity 49%
Rainfall 0.00 in
Snow Depth Not available.
6:58 AM 5:00 PM
Waning Crescent, 5% visible
METAR KHIE 061452Z AUTO VRB04KT 10SM FEW048 BKN120 M02/M08 A3021 RMK AO2 SLP250 T10221083 50000

10-Day Weather Forecast

Almanac

Astronomy

Feb. 06, 2016 Rise Set
Actual Time
Civil Twilight
Nautical Twilight
Astronomical Twilight
Moon
Length of Visible Light
Length of Day
Tomorrow will be .
, % of the Moon is Illuminated

Today's Extremes

State Highs State Lows

Community

WunderPhotos

Upload Photos

1,890,997 photos uploaded!

WunderBlog® & News

Nearby

Air Quality

  Air Quality AQ Index Pollutant
Not available.

Snow Depth

Station Depth Elevation

Earthquake Activity

City Distance Mag. Time & Date
Minimum magnitude displayed is 2.5.

Coastal Water Temperatures

Place Temperature

Stations

Nearby Weather Stations

Station Location Temp. Windchill Dew Point Humidity Wind Precip. Elev Updated Type
                   

Watches & Warnings

There are currently no watches in effect.